Time;durP1;ratioP1;P1;durP2;ratioP2;P2;SDS_P1;SDS_P2;PMS_P1;PMS_P2;Temp;Humidity;BMP_temperature;BMP_pressure;BME280_temperature;BME280_humidity;BME280_pressure;Samples;Min_cycle;Max_cycle;Signal;HPM_P1;HPM_P2
2021/12/05 00:19:31;;;;;;;27.83;15.57;;;;;;;1.14;73.23;98767.31;4468784;32;33773;-66
2021/12/05 00:24:25;;;;;;;3.83;2.05;;;;;;;1.14;73.71;98759.28;4469257;32;33957;-69
2021/12/05 00:27:01;;;;;;;26.55;15.35;;;;;;;1.08;73.81;98760.13;4468748;32;34318;-68
2021/12/05 00:32:25;;;;;;;28.12;15.93;;;;;;;1.34;73.00;98767.22;4469365;32;33972;-67
2021/12/05 00:52:09;;;;;;;25.70;15.75;;;;;;;0.90;75.48;98756.31;4468758;32;34362;-67
2021/12/05 01:05:49;;;;;;;31.15;18.05;;;;;;;0.97;75.11;98757.13;4468415;32;33927;-67
2021/12/05 01:16:10;;;;;;;1.37;1.27;;;;;;;1.16;75.11;98763.38;4467228;32;32389;-67
2021/12/05 01:18:39;;;;;;;32.35;18.83;;;;;;;1.10;75.38;98748.22;4468622;32;34020;-68
2021/12/05 01:21:13;;;;;;;32.80;19.40;;;;;;;1.04;75.48;98754.41;4468512;32;33754;-67
2021/12/05 01:26:24;;;;;;;34.25;19.42;;;;;;;0.89;76.35;98741.31;4468027;32;33953;-74
2021/12/05 01:50:42;;;;;;;0.70;0.70;;;;;;;0.76;78.71;98736.84;4466971;32;34206;-67
2021/12/05 02:32:02;;;;;;;42.10;24.25;;;;;;;1.02;78.76;98697.72;4466364;32;33491;-67
2021/12/05 02:42:31;;;;;;;43.08;23.80;;;;;;;1.09;78.86;98687.00;4468716;32;34830;-68
2021/12/05 02:45:02;;;;;;;1.85;0.85;;;;;;;0.97;79.45;98690.34;4468862;32;35075;-68
2021/12/05 02:47:32;;;;;;;45.85;24.40;;;;;;;0.90;80.12;98689.53;4469870;32;33759;-68
2021/12/05 02:50:05;;;;;;;47.65;24.73;;;;;;;1.06;79.76;98676.72;4468468;32;33167;-78
2021/12/05 02:52:37;;;;;;;51.50;26.77;;;;;;;0.83;80.46;98680.75;4470024;32;34675;-69
2021/12/05 02:55:39;;;;;;;2.15;1.95;;;;;;;0.55;81.73;98678.38;4468273;32;34214;-67
2021/12/05 02:58:35;;;;;;;47.13;26.25;;;;;;;0.85;81.42;98677.88;4469768;32;34823;-69
2021/12/05 03:01:15;;;;;;;51.33;27.50;;;;;;;0.52;81.89;98687.63;4469742;32;33828;-69
2021/12/05 03:06:32;;;;;;;44.95;26.05;;;;;;;0.46;83.39;98687.66;4469160;32;34994;-73
2021/12/05 03:09:07;;;;;;;47.70;27.23;;;;;;;0.90;81.04;98692.22;4469578;32;33554;-67
2021/12/05 03:11:35;;;;;;;48.50;26.27;;;;;;;0.51;82.67;98685.16;4469240;32;34350;-68
2021/12/05 03:14:06;;;;;;;49.10;26.02;;;;;;;0.69;81.90;98693.34;4469899;32;34301;-67
2021/12/05 03:16:35;;;;;;;45.75;24.87;;;;;;;0.98;80.79;98693.81;4469361;32;34106;-73
2021/12/05 03:19:05;;;;;;;48.03;26.20;;;;;;;0.84;81.56;98695.72;4469309;32;34927;-69
2021/12/05 03:21:34;;;;;;;46.83;25.60;;;;;;;1.54;78.17;98690.41;4468680;32;34410;-75
2021/12/05 03:24:03;;;;;;;45.10;24.92;;;;;;;1.40;77.97;98688.84;4468373;32;34733;-68
2021/12/05 03:26:35;;;;;;;42.70;25.30;;;;;;;0.94;80.45;98684.59;4469236;32;34140;-71
2021/12/05 03:29:06;;;;;;;48.33;24.77;;;;;;;0.81;81.05;98699.63;4468670;32;34074;-69
2021/12/05 03:31:34;;;;;;;43.55;25.10;;;;;;;1.42;78.99;98698.28;4469212;32;33709;-68
2021/12/05 03:34:04;;;;;;;45.85;24.75;;;;;;;1.00;80.53;98707.78;4469321;32;33465;-68
2021/12/05 03:36:33;;;;;;;45.60;26.37;;;;;;;0.98;81.30;98704.50;4469380;32;34180;-68
2021/12/05 03:39:06;;;;;;;41.30;24.05;;;;;;;1.43;79.32;98705.28;4468434;32;34327;-68
2021/12/05 03:41:34;;;;;;;51.15;27.27;;;;;;;0.82;81.63;98706.63;4469392;32;33534;-68
2021/12/05 03:44:05;;;;;;;46.47;25.65;;;;;;;0.93;80.57;98707.81;4469533;32;33710;-69
2021/12/05 03:46:33;;;;;;;44.17;24.77;;;;;;;1.04;81.07;98701.00;4469330;32;34048;-69
2021/12/05 03:49:05;;;;;;;3.03;2.03;;;;;;;0.98;80.66;98689.31;4468273;32;34932;-68
2021/12/05 03:51:36;;;;;;;44.13;24.12;;;;;;;1.59;78.46;98697.78;4468770;32;35219;-69
2021/12/05 03:54:06;;;;;;;46.33;24.80;;;;;;;1.45;78.87;98689.06;4469325;32;33879;-68
2021/12/05 03:56:35;;;;;;;41.47;23.85;;;;;;;1.14;80.26;98696.00;4469266;32;34946;-68
2021/12/05 03:59:05;;;;;;;48.00;25.58;;;;;;;1.57;77.93;98700.66;4468374;32;33811;-68
2021/12/05 04:01:35;;;;;;;9.80;8.90;;;;;;;1.22;78.93;98692.25;4468397;32;33361;-68
2021/12/05 04:04:04;;;;;;;46.72;25.15;;;;;;;1.21;79.87;98695.97;4469145;32;33709;-69
2021/12/05 04:06:32;;;;;;;46.85;25.85;;;;;;;1.14;80.13;98693.31;4469106;32;34198;-67
2021/12/05 04:09:05;;;;;;;49.15;27.52;;;;;;;1.33;79.38;98699.59;4469265;32;34077;-77
2021/12/05 04:11:38;;;;;;;5.70;5.07;;;;;;;1.04;80.44;98701.00;4469133;32;33518;-69
2021/12/05 04:14:09;;;;;;;47.10;26.55;;;;;;;0.76;82.59;98695.97;4468292;32;33847;-69
2021/12/05 04:16:39;;;;;;;45.38;26.35;;;;;;;1.41;79.33;98694.00;4468956;32;35039;-69
2021/12/05 04:19:08;;;;;;;46.92;26.83;;;;;;;1.35;79.36;98691.38;4469434;32;33698;-77
2021/12/05 04:21:40;;;;;;;44.45;25.48;;;;;;;1.25;79.49;98689.16;4468031;32;32988;-68
2021/12/05 04:24:09;;;;;;;3.22;2.17;;;;;;;1.29;79.59;98690.37;4468895;32;33850;-68
2021/12/05 04:26:38;;;;;;;48.65;26.20;;;;;;;1.07;80.74;98691.72;4469011;32;34156;-68
2021/12/05 04:29:07;;;;;;;47.70;25.90;;;;;;;1.35;79.71;98702.88;4476621;32;34689;-74
2021/12/05 04:31:36;;;;;;;45.20;25.92;;;;;;;1.53;78.84;98698.66;4484451;32;34039;-67
2021/12/05 04:34:04;;;;;;;47.22;25.10;;;;;;;1.30;79.36;98696.56;4484808;32;33909;-71
2021/12/05 04:36:33;;;;;;;47.00;24.87;;;;;;;1.53;78.05;98693.31;4485007;32;34342;-67
2021/12/05 04:39:04;;;;;;;106.82;53.65;;;;;;;1.49;78.65;98703.63;4484768;32;33631;-67
2021/12/05 04:41:31;;;;;;;48.38;26.70;;;;;;;1.32;79.61;98705.97;4484483;32;33635;-77
2021/12/05 04:44:01;;;;;;;50.33;26.62;;;;;;;1.66;78.31;98703.09;4483266;32;33852;-68
2021/12/05 04:46:30;;;;;;;47.60;27.80;;;;;;;1.69;77.70;98692.78;4482845;32;35108;-67
2021/12/05 04:49:00;;;;;;;45.47;25.67;;;;;;;1.61;77.99;98693.03;4483534;32;33919;-67
2021/12/05 04:51:31;;;;;;;46.05;24.60;;;;;;;1.41;78.85;98691.31;4484549;32;34422;-71
2021/12/05 04:53:59;;;;;;;45.12;26.23;;;;;;;1.52;78.33;98695.16;4483676;32;33383;-67
2021/12/05 04:56:27;;;;;;;47.75;25.75;;;;;;;0.89;81.12;98687.91;4484413;32;35167;-69
2021/12/05 04:58:55;;;;;;;48.30;26.40;;;;;;;1.09;81.05;98690.47;4484455;32;33579;-67
2021/12/05 05:01:24;;;;;;;46.78;25.83;;;;;;;1.41;79.67;98694.00;4484663;32;34048;-66
2021/12/05 05:03:53;;;;;;;46.37;26.70;;;;;;;1.25;80.41;98699.84;4483140;32;33896;-72
2021/12/05 05:06:24;;;;;;;48.50;26.25;;;;;;;1.33;79.68;98691.56;4483867;32;33861;-67
2021/12/05 05:08:55;;;;;;;43.38;24.85;;;;;;;1.57;78.89;98689.97;4484314;32;33897;-68
2021/12/05 05:11:24;;;;;;;46.95;25.73;;;;;;;1.62;78.66;98682.16;4484239;32;34453;-69
2021/12/05 05:13:52;;;;;;;52.53;28.48;;;;;;;1.63;78.56;98696.31;4483161;32;34771;-74
2021/12/05 05:16:22;;;;;;;49.10;25.12;;;;;;;1.81;77.93;98696.41;4483960;32;34306;-67
2021/12/05 05:18:53;;;;;;;51.25;25.83;;;;;;;1.16;80.48;98693.13;4484054;32;33782;-67
2021/12/05 05:30:27;;;;;;;47.22;25.27;;;;;;;1.58;78.30;98706.84;4474980;32;33319;-74
2021/12/05 05:48:47;;;;;;;47.17;26.40;;;;;;;1.73;78.71;98702.00;4482647;32;33907;-67
2021/12/05 05:51:15;;;;;;;3.08;2.45;;;;;;;1.82;78.43;98702.56;4481868;32;33550;-67
2021/12/05 05:53:46;;;;;;;48.67;25.55;;;;;;;1.84;78.40;98698.63;4481282;32;34240;-69
2021/12/05 05:56:19;;;;;;;1.50;1.40;;;;;;;1.50;80.26;98699.91;4482732;32;33755;-67
2021/12/05 05:58:54;;;;;;;4.05;2.95;;;;;;;1.41;80.57;98695.84;4482247;32;34773;-69
2021/12/05 06:04:06;;;;;;;52.25;27.17;;;;;;;1.71;79.89;98711.28;4483670;32;34429;-68
2021/12/05 06:06:34;;;;;;;50.55;27.30;;;;;;;1.55;80.21;98717.97;4483494;32;33986;-72
2021/12/05 06:09:03;;;;;;;53.05;27.73;;;;;;;1.82;79.41;98713.25;4483838;32;34126;-68
2021/12/05 06:11:31;;;;;;;50.70;25.98;;;;;;;1.86;79.50;98719.81;4483532;32;34475;-67
2021/12/05 06:14:00;;;;;;;2.72;1.30;;;;;;;1.72;79.91;98723.62;4482936;32;33647;-70
2021/12/05 06:16:27;;;;;;;55.05;28.83;;;;;;;1.99;78.52;98714.34;4472422;32;33875;-68
2021/12/05 06:18:55;;;;;;;59.92;28.02;;;;;;;1.53;80.69;98720.03;4474920;32;35152;-72
2021/12/05 06:21:22;;;;;;;53.25;28.40;;;;;;;1.43;81.46;98724.00;4485355;32;34972;-70
2021/12/05 06:23:50;;;;;;;52.22;28.12;;;;;;;1.80;79.68;98731.38;4485823;32;33773;-72
2021/12/05 06:26:22;;;;;;;56.65;28.35;;;;;;;1.69;79.98;98729.41;4484075;32;33995;-69
2021/12/05 06:29:30;;;;;;;52.53;28.12;;;;;;;1.63;80.17;98729.22;4476683;32;34236;-66
2021/12/05 06:31:56;;;;;;;1.65;1.23;;;;;;;2.16;78.28;98733.34;4468866;32;34796;-66
2021/12/05 06:37:29;;;;;;;54.20;28.42;;;;;;;1.58;80.70;98734.41;4469675;32;33674;-73
2021/12/05 06:42:52;;;;;;;60.33;30.42;;;;;;;1.99;79.10;98717.03;4467646;32;34603;-67
2021/12/05 06:48:07;;;;;;;2.85;2.37;;;;;;;1.91;79.34;98716.50;4485313;32;33906;-67
2021/12/05 06:50:34;;;;;;;56.47;27.92;;;;;;;1.82;79.40;98727.44;4483691;32;33892;-69
2021/12/05 06:53:04;;;;;;;62.00;30.05;;;;;;;1.61;81.42;98735.81;4484980;32;32747;-71
2021/12/05 06:55:33;;;;;;;61.37;30.23;;;;;;;1.50;82.00;98748.03;4485141;32;33642;-67
2021/12/05 06:58:00;;;;;;;1.87;1.73;;;;;;;1.95;80.35;98737.22;4485389;32;34624;-68
2021/12/05 07:00:29;;;;;;;63.20;32.33;;;;;;;1.98;80.17;98758.19;4485371;32;35212;-64
2021/12/05 07:02:57;;;;;;;63.47;30.15;;;;;;;1.70;81.08;98747.88;4485070;32;34012;-71
2021/12/05 07:08:14;;;;;;;56.40;28.60;;;;;;;1.34;82.21;98761.88;4485250;32;34153;-66
2021/12/05 07:10:54;;;;;;;57.30;29.58;;;;;;;2.03;79.98;98762.88;4485276;32;34114;-66
2021/12/05 07:19:36;;;;;;;64.12;29.02;;;;;;;2.07;79.70;98747.22;4485158;32;34446;-70
2021/12/05 07:21:47;;;;;;;2.67;2.20;;;;;;;2.11;78.86;98759.94;4482757;32;33962;-68
2021/12/05 07:25:08;;;;;;;2.67;2.45;;;;;;;1.97;80.15;98769.94;4483950;32;34196;-66
2021/12/05 07:40:18;;;;;;;58.45;28.38;;;;;;;2.20;79.04;98757.81;4477903;32;33212;-73
2021/12/05 07:41:06;;;;;;;60.63;29.77;;;;;;;2.07;80.62;98753.38;4484529;32;34494;-70
2021/12/05 07:43:33;;;;;;;68.97;32.08;;;;;;;2.12;80.27;98764.25;4484848;32;34088;-65
2021/12/05 07:46:06;;;;;;;63.67;31.67;;;;;;;2.21;79.34;98776.31;4484662;32;33683;-70
2021/12/05 07:48:36;;;;;;;3.15;2.90;;;;;;;2.10;79.64;98777.03;4484982;32;33201;-66
2021/12/05 07:56:42;;;;;;;60.90;28.95;;;;;;;1.11;84.50;98775.75;4484220;32;34024;-72
2021/12/05 08:15:41;;;;;;;56.63;29.25;;;;;;;2.75;76.25;98786.56;4484187;32;35111;-67
2021/12/05 08:18:08;;;;;;;57.03;29.55;;;;;;;2.34;78.05;98780.75;4471327;32;33943;-73
2021/12/05 08:20:39;;;;;;;58.87;28.55;;;;;;;2.51;77.31;98783.69;4469151;32;34369;-69
2021/12/05 08:23:07;;;;;;;57.67;29.27;;;;;;;2.28;78.44;98786.97;4476534;32;34818;-68
2021/12/05 08:25:38;;;;;;;3.12;1.60;;;;;;;2.46;77.73;98779.00;4484052;32;34203;-67
2021/12/05 08:30:49;;;;;;;55.65;27.90;;;;;;;2.62;76.94;98788.31;4484463;32;33488;-75
2021/12/05 09:25:58;;;;;;;57.53;29.63;;;;;;;2.44;79.60;98773.06;4483865;32;34418;-68
2021/12/05 10:07:03;;;;;;;56.88;27.83;;;;;;;3.21;75.58;98743.16;4483401;32;33778;-66
2021/12/05 10:12:57;;;;;;;51.67;24.98;;;;;;;3.40;75.18;98735.91;4463340;32;34043;-65
2021/12/05 10:15:37;;;;;;;1.48;1.23;;;;;;;3.78;73.91;98744.63;4482439;31;35211;-66
2021/12/05 10:40:58;;;;;;;3.30;3.00;;;;;;;2.77;77.80;98730.91;4466117;32;34534;-65
2021/12/05 10:43:28;;;;;;;1.58;1.48;;;;;;;2.78;77.76;98727.19;4467560;32;33578;-65
2021/12/05 10:46:03;;;;;;;48.42;25.75;;;;;;;3.02;77.16;98718.25;4460449;32;33440;-67
2021/12/05 10:48:35;;;;;;;55.00;27.70;;;;;;;2.62;78.86;98726.72;4467376;32;34056;-74
2021/12/05 10:51:15;;;;;;;51.75;25.08;;;;;;;2.88;77.19;98722.13;4480086;32;33883;-64
2021/12/05 10:53:48;;;;;;;49.47;24.60;;;;;;;3.08;76.37;98724.56;4482600;32;33518;-77
2021/12/05 10:56:28;;;;;;;51.58;23.75;;;;;;;2.98;76.72;98719.75;4482464;32;33804;-64
2021/12/05 10:59:07;;;;;;;48.00;23.58;;;;;;;2.66;78.35;98711.06;4482910;32;34163;-68
2021/12/05 11:01:40;;;;;;;4.05;1.98;;;;;;;2.59;78.79;98713.81;4483897;32;34923;-65
2021/12/05 11:04:36;;;;;;;52.67;27.08;;;;;;;2.51;78.80;98723.97;4485249;32;33368;-68
2021/12/05 11:07:12;;;;;;;49.83;25.30;;;;;;;2.46;79.46;98705.87;4483254;32;33650;-68
2021/12/05 11:09:42;;;;;;;48.10;23.83;;;;;;;2.60;78.62;98706.56;4484931;32;35088;-67
2021/12/05 11:12:33;;;;;;;7.53;2.30;;;;;;;2.62;78.74;98705.31;4484809;32;33773;-66
2021/12/05 11:15:09;;;;;;;48.40;24.20;;;;;;;2.36;79.53;98710.94;4482159;32;34073;-63
2021/12/05 11:17:47;;;;;;;51.58;24.48;;;;;;;2.07;81.39;98707.09;4469024;32;34160;-65
2021/12/05 11:20:28;;;;;;;53.13;24.15;;;;;;;2.55;79.49;98701.06;4468977;32;35072;-64
2021/12/05 11:22:57;;;;;;;52.72;24.40;;;;;;;2.40;79.42;98707.59;4468707;32;33361;-64
2021/12/05 11:25:28;;;;;;;46.67;23.42;;;;;;;2.14;80.62;98714.03;4468561;32;34886;-64
2021/12/05 11:28:08;;;;;;;50.28;23.40;;;;;;;2.49;79.87;98716.16;4469084;32;34038;-62
2021/12/05 11:30:38;;;;;;;53.13;23.62;;;;;;;2.60;79.39;98714.63;4468671;32;34826;-63
2021/12/05 11:33:07;;;;;;;50.25;23.70;;;;;;;2.29;80.10;98707.50;4468753;32;34596;-63
2021/12/05 11:36:00;;;;;;;48.40;24.42;;;;;;;2.67;78.80;98697.41;4467645;32;34283;-64
2021/12/05 11:38:33;;;;;;;46.92;23.92;;;;;;;2.30;79.83;98699.25;4469028;32;33540;-64
2021/12/05 11:41:08;;;;;;;45.55;21.67;;;;;;;2.25;80.12;98707.94;4468904;32;34272;-64
2021/12/05 11:43:58;;;;;;;49.23;23.40;;;;;;;2.35;79.94;98712.78;4468834;32;34750;-64
2021/12/05 11:46:36;;;;;;;48.10;23.48;;;;;;;2.13;80.30;98706.22;4468267;32;33772;-64
2021/12/05 11:49:10;;;;;;;46.10;22.25;;;;;;;1.67;82.62;98708.22;4468992;32;34176;-64
2021/12/05 11:51:52;;;;;;;48.25;22.62;;;;;;;2.28;80.31;98714.72;4467391;32;33863;-64
2021/12/05 11:54:22;;;;;;;45.10;22.50;;;;;;;2.37;79.61;98708.03;4469086;32;33941;-65
2021/12/05 11:57:16;;;;;;;48.80;22.70;;;;;;;2.04;80.84;98698.47;4468779;32;34173;-64
2021/12/05 11:59:51;;;;;;;53.95;24.73;;;;;;;2.23;80.19;98706.53;4468832;32;33896;-65
2021/12/05 12:02:34;;;;;;;51.83;23.75;;;;;;;2.23;79.92;98710.03;4467644;32;33715;-66
2021/12/05 12:05:11;;;;;;;47.38;24.23;;;;;;;2.13;80.31;98706.22;4468619;32;34793;-64
2021/12/05 12:08:07;;;;;;;4.12;2.60;;;;;;;2.25;80.02;98704.47;4467761;32;33597;-66
2021/12/05 12:10:41;;;;;;;46.78;22.17;;;;;;;2.07;81.54;98696.38;4467446;32;33723;-64
2021/12/05 12:13:20;;;;;;;3.83;3.33;;;;;;;1.71;81.73;98695.25;4467949;32;34067;-64
2021/12/05 12:15:59;;;;;;;46.80;22.23;;;;;;;2.29;80.51;98724.41;4466423;32;33974;-66
2021/12/05 12:18:32;;;;;;;45.17;22.02;;;;;;;1.90;81.35;98720.19;4461996;32;248878;-64
2021/12/05 12:21:04;;;;;;;45.85;22.33;;;;;;;2.33;79.66;98724.75;4468621;32;34569;-64
2021/12/05 12:23:32;;;;;;;0.93;0.93;;;;;;;1.77;81.54;98708.56;4467406;32;34153;-64
2021/12/05 12:26:02;;;;;;;2.50;2.03;;;;;;;1.71;82.77;98708.62;4468694;32;33608;-64
2021/12/05 12:28:30;;;;;;;47.40;23.10;;;;;;;1.45;84.24;98710.44;4468979;32;33216;-64
2021/12/05 12:31:04;;;;;;;50.85;24.50;;;;;;;1.67;82.93;98720.78;4468191;32;34585;-65
2021/12/05 12:33:40;;;;;;;49.28;23.23;;;;;;;1.39;85.54;98711.28;4468437;32;34398;-64
2021/12/05 12:36:08;;;;;;;2.17;1.83;;;;;;;1.77;83.60;98695.19;4468524;32;33868;-64
2021/12/05 12:38:41;;;;;;;50.15;23.12;;;;;;;1.55;84.45;98692.03;4468661;32;33635;-66
2021/12/05 12:41:19;;;;;;;54.65;25.30;;;;;;;1.54;84.94;98686.94;4467509;32;33644;-66
2021/12/05 12:43:49;;;;;;;50.92;23.70;;;;;;;1.55;84.70;98701.94;4468521;32;34155;-64
2021/12/05 12:46:20;;;;;;;55.05;24.27;;;;;;;2.02;82.57;98695.19;4467553;32;33825;-64
2021/12/05 12:48:58;;;;;;;53.42;23.17;;;;;;;2.14;81.78;98695.28;4468576;32;33477;-66
2021/12/05 12:51:37;;;;;;;48.97;22.00;;;;;;;2.23;81.23;98695.84;4468297;32;34733;-65
2021/12/05 12:54:11;;;;;;;44.42;20.77;;;;;;;2.18;81.20;98707.19;4467218;32;34951;-64
2021/12/05 12:56:40;;;;;;;4.90;2.97;;;;;;;2.16;81.39;98706.59;4468573;32;33695;-64
2021/12/05 12:59:13;;;;;;;38.20;20.12;;;;;;;1.94;82.31;98697.31;4468177;32;33626;-65
2021/12/05 13:10:00;;;;;;;41.67;21.23;;;;;;;1.74;82.71;98676.91;4468278;32;33807;-65
2021/12/05 13:10:39;;;;;;;4.65;4.30;;;;;;;2.21;81.36;98671.16;4468376;32;34239;-64
2021/12/05 13:13:11;;;;;;;48.10;23.08;;;;;;;1.66;83.94;98674.50;4468217;32;34430;-65
2021/12/05 13:15:41;;;;;;;44.13;21.95;;;;;;;1.72;83.50;98673.63;4467625;32;35151;-66
2021/12/05 13:18:13;;;;;;;48.35;23.45;;;;;;;1.48;85.07;98669.09;4468038;32;34826;-65
2021/12/05 13:20:41;;;;;;;45.25;22.13;;;;;;;1.81;83.98;98674.16;4468410;32;34533;-65
2021/12/05 13:23:17;;;;;;;47.90;22.30;;;;;;;1.51;84.75;98660.63;4467986;32;33903;-65
2021/12/05 13:26:19;;;;;;;50.42;22.20;;;;;;;1.26;86.74;98664.09;4467000;32;34976;-65
2021/12/05 13:28:50;;;;;;;46.15;22.00;;;;;;;1.20;87.38;98646.25;4467714;32;34647;-64
2021/12/05 13:31:50;;;;;;;53.90;22.62;;;;;;;1.20;87.17;98640.91;4467972;32;33871;-65
2021/12/05 13:34:28;;;;;;;51.37;21.87;;;;;;;1.46;86.83;98634.53;4468054;32;34726;-64
2021/12/05 13:37:05;;;;;;;55.90;24.45;;;;;;;1.20;88.49;98623.00;4467977;32;34773;-65
2021/12/05 13:39:49;;;;;;;55.00;24.58;;;;;;;1.25;88.10;98618.88;4468142;32;33448;-64
2021/12/05 13:42:34;;;;;;;60.30;24.83;;;;;;;1.61;86.02;98627.03;4468096;32;34393;-65
2021/12/05 13:45:05;;;;;;;5.07;2.30;;;;;;;1.84;84.35;98621.06;4467513;32;33954;-66
2021/12/05 13:47:32;;;;;;;48.40;25.60;;;;;;;1.50;86.32;98621.56;4467779;32;33771;-64
2021/12/05 13:50:18;;;;;;;55.42;25.23;;;;;;;1.88;84.43;98618.78;4468053;32;33936;-64
2021/12/05 13:52:57;;;;;;;52.88;22.13;;;;;;;2.08;83.54;98631.16;4467808;32;33539;-64
2021/12/05 13:55:59;;;;;;;49.97;22.55;;;;;;;1.94;84.39;98641.94;4466240;32;32328;-64
2021/12/05 13:58:34;;;;;;;60.47;24.42;;;;;;;1.43;86.24;98645.69;4467392;32;34895;-69
2021/12/05 14:01:11;;;;;;;;;;;;;;;1.76;84.83;98655.28;4468059;32;34669;-64
2021/12/05 14:03:53;;;;;;;61.08;25.42;;;;;;;1.61;86.07;98645.72;4467712;32;33208;-76
2021/12/05 14:06:42;;;;;;;55.65;24.05;;;;;;;1.79;85.56;98653.00;4467559;32;33732;-65
2021/12/05 14:09:30;;;;;;;59.97;24.77;;;;;;;1.68;86.21;98658.22;4467617;32;34287;-66
2021/12/05 14:12:13;;;;;;;59.72;24.55;;;;;;;1.50;86.78;98659.81;4459730;32;33320;-64
2021/12/05 14:14:42;;;;;;;3.85;2.50;;;;;;;1.60;86.98;98662.00;4466859;32;33922;-70
2021/12/05 14:17:12;;;;;;;59.45;24.45;;;;;;;1.49;87.24;98660.84;4467378;32;33872;-64
2021/12/05 14:19:41;;;;;;;69.30;25.62;;;;;;;1.50;87.97;98661.66;4467264;32;35580;-65
2021/12/05 14:22:13;;;;;;;62.50;25.15;;;;;;;1.65;86.36;98664.84;4465885;32;33843;-64
2021/12/05 14:24:43;;;;;;;68.43;25.85;;;;;;;1.46;87.67;98658.59;4467009;32;34468;-64
2021/12/05 14:27:15;;;;;;;79.32;28.70;;;;;;;1.39;87.94;98658.66;4466921;32;33770;-65
2021/12/05 14:29:45;;;;;;;75.93;29.45;;;;;;;1.57;87.38;98668.59;4465450;32;34048;-64
2021/12/05 14:32:20;;;;;;;1.90;1.70;;;;;;;1.62;86.55;98666.09;4467091;32;34752;-63
2021/12/05 14:35:01;;;;;;;3.40;2.25;;;;;;;1.60;86.77;98678.06;4467229;32;33478;-64
2021/12/05 14:37:33;;;;;;;65.80;25.80;;;;;;;1.49;87.19;98678.72;4468972;32;34549;-68
2021/12/05 14:40:09;;;;;;;72.80;31.27;;;;;;;1.72;86.23;98678.97;4469543;32;33363;-65
2021/12/05 14:42:40;;;;;;;65.90;28.12;;;;;;;1.84;85.94;98685.25;4468981;32;33828;-64
2021/12/05 14:45:38;;;;;;;65.03;25.55;;;;;;;1.66;86.79;98682.50;4469054;32;33267;-64
2021/12/05 14:48:08;;;;;;;70.97;26.85;;;;;;;2.01;85.71;98687.41;4456724;32;33837;-66
2021/12/05 14:50:49;;;;;;;74.15;26.25;;;;;;;2.19;83.67;98686.59;4468541;32;34873;-63
2021/12/05 14:53:18;;;;;;;75.57;25.62;;;;;;;1.90;85.66;98686.25;4467840;32;34012;-64
2021/12/05 14:55:47;;;;;;;82.55;26.15;;;;;;;1.77;85.38;98686.34;4469111;32;34292;-64
2021/12/05 14:58:16;;;;;;;72.43;26.33;;;;;;;1.89;85.08;98679.25;4468535;32;33958;-67
2021/12/05 15:00:49;;;;;;;75.37;25.98;;;;;;;1.48;87.09;98679.78;4469269;32;34122;-66
2021/12/05 15:03:20;;;;;;;77.45;25.08;;;;;;;1.75;85.76;98667.84;4469189;32;33901;-64
2021/12/05 15:05:51;;;;;;;66.07;25.55;;;;;;;1.41;87.78;98685.16;4468942;32;33262;-64
2021/12/05 15:08:22;;;;;;;72.03;29.23;;;;;;;1.38;87.73;98677.56;4467771;32;33949;-63
2021/12/05 15:10:56;;;;;;;72.55;26.62;;;;;;;1.57;88.14;98671.25;4469114;32;34257;-63
2021/12/05 15:13:24;;;;;;;84.28;27.60;;;;;;;1.45;88.17;98675.69;4468232;32;33905;-65
2021/12/05 15:15:53;;;;;;;82.78;27.92;;;;;;;1.38;88.62;98681.06;4468961;32;33467;-65
2021/12/05 15:18:24;;;;;;;85.75;29.85;;;;;;;1.24;89.38;98682.19;4468976;32;33979;-64
2021/12/05 15:20:52;;;;;;;91.20;30.40;;;;;;;1.67;87.69;98675.31;4468836;32;34047;-64
2021/12/05 15:23:21;;;;;;;6.05;3.95;;;;;;;1.31;89.48;98668.78;4467831;32;33587;-63
2021/12/05 15:25:48;;;;;;;72.43;25.77;;;;;;;1.31;89.74;98668.78;4469427;32;33108;-67
2021/12/05 15:28:17;;;;;;;15.13;2.85;;;;;;;1.13;91.00;98674.84;4468257;32;34553;-65
2021/12/05 15:30:47;;;;;;;75.65;26.85;;;;;;;1.39;88.87;98665.84;4469050;32;33988;-63
2021/12/05 15:33:16;;;;;;;1.52;1.37;;;;;;;1.38;89.55;98654.34;4468842;32;33905;-64
2021/12/05 15:35:44;;;;;;;78.70;25.62;;;;;;;1.39;88.83;98658.66;4467342;32;34322;-63
2021/12/05 15:38:21;;;;;;;83.90;25.90;;;;;;;1.40;89.13;98662.13;4467867;32;33625;-71
2021/12/05 15:40:54;;;;;;;67.57;25.23;;;;;;;1.32;88.11;98665.91;4467605;32;34079;-65
2021/12/05 15:43:23;;;;;;;84.28;28.45;;;;;;;1.14;90.13;98665.78;4467018;32;33695;-64
2021/12/05 15:45:53;;;;;;;85.32;27.67;;;;;;;1.53;88.20;98666.56;4468627;32;33662;-65
2021/12/05 15:48:25;;;;;;;83.37;27.52;;;;;;;1.19;88.96;98660.66;4466492;32;33514;-65
2021/12/05 15:50:55;;;;;;;5.87;4.97;;;;;;;1.59;88.16;98665.72;4467314;32;33966;-66
2021/12/05 15:53:24;;;;;;;86.25;27.40;;;;;;;1.51;88.62;98658.78;4468851;32;33710;-68
2021/12/05 15:56:04;;;;;;;95.00;29.70;;;;;;;1.57;87.95;98657.91;4468642;32;33259;-64
2021/12/05 15:58:45;;;;;;;83.82;27.52;;;;;;;1.43;89.17;98677.75;4467913;32;34401;-64
2021/12/05 16:01:24;;;;;;;10.52;3.50;;;;;;;1.54;89.29;98673.56;4467645;32;34266;-67
2021/12/05 16:03:58;;;;;;;73.95;27.95;;;;;;;1.22;90.10;98676.22;4468757;32;35059;-66
2021/12/05 16:06:40;;;;;;;88.45;27.27;;;;;;;1.20;90.59;98678.31;4468616;32;34599;-66
2021/12/05 16:09:16;;;;;;;79.65;26.48;;;;;;;1.78;88.29;98691.47;4467782;32;34749;-66
2021/12/05 16:11:45;;;;;;;97.30;27.67;;;;;;;1.59;88.54;98697.78;4468463;32;34179;-65
2021/12/05 16:14:12;;;;;;;84.05;26.87;;;;;;;1.50;88.29;98683.06;4478262;32;33531;-65
2021/12/05 16:16:40;;;;;;;86.07;26.98;;;;;;;1.15;90.81;98668.25;4466951;32;34440;-65
2021/12/05 16:19:10;;;;;;;86.40;30.77;;;;;;;1.56;89.20;98682.19;4468646;32;34369;-65
2021/12/05 16:21:38;;;;;;;74.00;27.15;;;;;;;2.00;86.20;98697.25;4468599;32;34034;-66
2021/12/05 16:24:17;;;;;;;77.75;27.52;;;;;;;2.53;83.39;98692.41;4468610;32;34018;-64
2021/12/05 16:26:47;;;;;;;83.43;26.17;;;;;;;2.47;84.45;98700.31;4467876;32;33167;-65
2021/12/05 16:29:19;;;;;;;2.28;2.12;;;;;;;2.18;84.63;98699.19;4467350;32;35420;-65
2021/12/05 16:31:56;;;;;;;75.00;26.27;;;;;;;2.50;83.59;98703.59;4468623;32;34048;-70
2021/12/05 16:34:29;;;;;;;68.10;25.40;;;;;;;2.44;83.07;98727.53;4468536;32;33427;-64
2021/12/05 16:37:07;;;;;;;68.22;25.05;;;;;;;2.41;83.94;98741.34;4467303;32;33516;-65
2021/12/05 16:39:55;;;;;;;67.22;25.77;;;;;;;2.04;85.99;98740.44;4468415;32;33849;-65
2021/12/05 16:42:23;;;;;;;3.40;1.95;;;;;;;2.03;85.77;98728.09;4467724;32;34250;-66
2021/12/05 16:44:56;;;;;;;71.32;27.00;;;;;;;1.88;86.67;98707.06;4468277;32;34104;-65
2021/12/05 16:47:30;;;;;;;1.42;1.05;;;;;;;2.10;85.81;98710.16;4467003;32;33408;-65
2021/12/05 16:50:00;;;;;;;70.12;27.37;;;;;;;2.09;86.42;98721.06;4468676;32;34267;-65
2021/12/05 16:52:33;;;;;;;4.57;3.50;;;;;;;2.00;84.99;98725.88;4467989;32;33903;-66
2021/12/05 16:55:30;;;;;;;72.82;25.25;;;;;;;1.61;88.53;98722.44;4468155;32;34076;-66
2021/12/05 16:58:15;;;;;;;67.22;25.67;;;;;;;2.50;84.24;98725.81;4466616;32;34428;-65
2021/12/05 17:00:48;;;;;;;66.43;22.73;;;;;;;2.48;82.81;98727.91;4468210;32;33945;-67
2021/12/05 17:03:26;;;;;;;67.22;26.48;;;;;;;2.80;81.91;98727.78;4467079;32;33788;-65
2021/12/05 17:05:59;;;;;;;60.00;23.98;;;;;;;2.93;81.09;98726.81;4468557;32;34023;-65
2021/12/05 17:08:28;;;;;;;66.78;25.23;;;;;;;2.59;82.82;98726.34;4468279;32;33361;-66
2021/12/05 17:11:05;;;;;;;4.22;3.10;;;;;;;2.80;82.05;98736.63;4468087;32;33827;-66
2021/12/05 17:13:53;;;;;;;53.20;22.15;;;;;;;2.63;82.42;98735.56;4466459;32;34850;-66
2021/12/05 17:16:28;;;;;;;56.70;22.30;;;;;;;2.69;82.59;98740.03;4468089;32;34197;-65
2021/12/05 17:19:09;;;;;;;48.72;20.77;;;;;;;2.52;83.33;98752.38;4479701;32;33116;-66
2021/12/05 17:21:49;;;;;;;54.80;20.80;;;;;;;2.94;81.57;98756.06;4479677;32;33732;-66
2021/12/05 17:24:26;;;;;;;44.80;18.50;;;;;;;2.94;81.76;98753.38;4468133;32;34864;-65
2021/12/05 17:27:02;;;;;;;45.90;20.23;;;;;;;3.31;80.35;98752.53;4467475;32;33690;-66
2021/12/05 17:29:35;;;;;;;45.88;20.85;;;;;;;3.02;81.58;98754.94;4468281;32;33448;-66
2021/12/05 17:32:16;;;;;;;39.70;19.85;;;;;;;3.47;79.66;98751.87;4467803;32;33861;-65
2021/12/05 17:34:46;;;;;;;43.05;19.40;;;;;;;3.92;77.94;98756.00;4467773;32;34062;-68
2021/12/05 17:37:20;;;;;;;38.40;17.75;;;;;;;4.14;77.08;98758.97;4468181;32;33786;-65